Time;durP1;ratioP1;P1;durP2;ratioP2;P2;SDS_P1;SDS_P2;PMS_P1;PMS_P2;Temp;Humidity;BMP_temperature;BMP_pressure;BME280_temperature;BME280_humidity;BME280_pressure;Samples;Min_cycle;Max_cycle;Signal;HPM_P1;HPM_P2
2023/10/19 00:00:59;;;;;;;30.77;22.30;;;7.30;99.90;;;6.85;100.00;99092.31;5048295;28;20128;-79
2023/10/19 00:03:26;;;;;;;32.40;22.48;;;7.30;99.90;;;6.91;100.00;99096.84;5033917;28;20124;-79
2023/10/19 00:05:55;;;;;;;32.22;23.25;;;7.30;99.90;;;6.91;100.00;99103.06;5032687;28;20124;-79
2023/10/19 00:08:21;;;;;;;37.60;22.52;;;7.30;99.90;;;6.92;100.00;99093.06;5039682;28;20431;-79
2023/10/19 00:11:02;;;;;;;32.63;22.80;;;7.30;99.90;;;6.92;100.00;99093.06;5038911;28;20405;-79
2023/10/19 00:13:29;;;;;;;38.22;25.48;;;7.30;99.90;;;6.95;100.00;99080.91;5032226;28;20051;-79
2023/10/19 00:15:57;;;;;;;36.58;24.10;;;7.30;99.90;;;6.89;100.00;99063.66;5044315;28;20033;-78
2023/10/19 00:18:24;;;;;;;36.03;24.98;;;7.30;99.90;;;6.87;100.00;99055.78;5037955;28;20045;-81
2023/10/19 00:21:50;;;;;;;37.05;25.88;;;7.20;99.90;;;6.83;100.00;99043.75;5038819;28;20099;-80
2023/10/19 00:23:39;;;;;;;;;;;7.30;99.90;;;6.85;100.00;99043.50;5027844;28;20038;-79
2023/10/19 00:26:09;;;;;;;39.45;26.65;;;7.20;99.90;;;6.81;100.00;99031.47;5050775;28;19917;-78
2023/10/19 00:28:38;;;;;;;40.45;27.60;;;7.20;99.90;;;6.87;100.00;99022.41;5038001;28;20037;-79
2023/10/19 00:31:08;;;;;;;42.15;28.38;;;7.20;99.90;;;6.80;100.00;99006.28;5051644;28;20030;-78
2023/10/19 00:33:38;;;;;;;49.65;29.83;;;7.20;99.90;;;6.80;100.00;98995.44;5032770;28;20037;-78
2023/10/19 00:36:12;;;;;;;42.95;28.85;;;7.20;99.90;;;6.72;100.00;98971.34;5047708;28;20649;-78
2023/10/19 00:38:50;;;;;;;46.65;30.02;;;7.20;99.90;;;6.79;100.00;98961.25;5032805;28;20038;-78
2023/10/19 00:41:21;;;;;;;47.97;30.90;;;7.20;99.90;;;6.83;100.00;98948.88;5032898;28;20056;-78
2023/10/19 00:44:02;;;;;;;47.13;31.42;;;7.10;99.90;;;6.73;100.00;98938.63;5047649;28;20036;-78
2023/10/19 00:49:23;;;;;;;47.38;31.15;;;7.10;99.90;;;6.76;100.00;98938.13;5021831;28;20041;-78
2023/10/19 00:52:11;;;;;;;53.90;32.60;;;7.10;99.90;;;6.72;100.00;98926.13;5047772;28;20041;-79
2023/10/19 00:57:13;;;;;;;53.10;34.00;;;7.00;99.90;;;6.71;100.00;98901.94;5032054;28;20045;-78
2023/10/19 00:59:54;;;;;;;57.60;35.90;;;7.00;99.90;;;6.68;100.00;98880.75;5034853;28;20030;-78
2023/10/19 01:02:21;;;;;;;60.83;36.25;;;7.00;99.90;;;6.70;100.00;98874.03;5032416;28;20124;-78
2023/10/19 01:04:55;;;;;;;62.08;37.30;;;7.00;99.90;;;6.67;100.00;98866.38;5047123;28;20037;-78
2023/10/19 01:07:27;;;;;;;62.17;36.75;;;7.00;99.90;;;6.67;100.00;98852.84;5031060;28;20096;-78
2023/10/19 01:10:00;;;;;;;65.30;36.42;;;7.00;99.90;;;6.71;100.00;98836.91;5050958;28;20413;-79
2023/10/19 01:12:38;;;;;;;60.40;37.33;;;7.00;99.90;;;6.76;100.00;98824.31;5046873;28;20056;-78
2023/10/19 01:15:16;;;;;;;61.72;36.13;;;7.00;99.90;;;6.77;100.00;98819.72;5032247;28;20128;-78
2023/10/19 01:17:45;;;;;;;64.97;37.15;;;7.00;99.90;;;6.76;100.00;98813.47;5030476;28;20369;-78
2023/10/19 01:20:38;;;;;;;66.57;38.28;;;7.00;99.90;;;6.73;100.00;98794.13;5032047;28;20088;-79
2023/10/19 01:28:18;;;;;;;68.80;40.72;;;7.00;99.90;;;6.69;100.00;98739.59;5059535;28;20492;-81
2023/10/19 01:30:45;;;;;;;69.13;40.53;;;7.00;99.90;;;6.62;100.00;98728.03;5032296;28;20489;-78
2023/10/19 01:33:15;;;;;;;76.30;42.70;;;7.00;99.90;;;6.56;100.00;98732.53;5032479;28;20332;-77
2023/10/19 01:38:31;;;;;;;79.00;43.47;;;6.90;99.90;;;6.52;100.00;98706.16;5031654;28;20037;-78
2023/10/19 01:41:23;;;;;;;79.32;43.28;;;6.90;99.90;;;6.50;100.00;98692.88;5046694;28;20028;-78
2023/10/19 01:43:54;;;;;;;84.35;44.80;;;6.80;99.90;;;6.46;100.00;98676.25;5045371;28;20037;-77
2023/10/19 01:46:31;;;;;;;84.28;46.30;;;6.80;99.90;;;6.52;100.00;98660.94;5031262;28;20041;-78
2023/10/19 01:48:57;;;;;;;87.72;45.35;;;6.80;99.90;;;6.57;100.00;98652.06;5031810;28;20041;-78
2023/10/19 01:51:28;;;;;;;85.72;44.65;;;6.80;99.90;;;6.53;100.00;98634.66;5035852;28;20036;-78
2023/10/19 01:53:55;;;;;;;87.00;45.58;;;6.90;99.90;;;6.43;100.00;98625.25;5046641;28;20026;-77
2023/10/19 01:56:22;;;;;;;84.70;44.87;;;6.80;99.90;;;6.48;100.00;98616.41;5045736;28;20120;-78
2023/10/19 01:58:51;;;;;;;88.57;45.90;;;6.80;99.90;;;6.46;100.00;98607.69;5029342;28;20385;-77
2023/10/19 02:01:28;;;;;;;86.90;45.10;;;6.80;99.90;;;6.46;100.00;98596.84;5029619;28;20127;-78
2023/10/19 02:03:59;;;;;;;85.97;45.00;;;6.80;99.90;;;6.42;100.00;98582.97;5046896;28;20041;-78
2023/10/19 02:09:17;;;;;;;82.72;43.40;;;6.80;99.90;;;6.48;100.00;98576.59;5034566;28;20053;-79
2023/10/19 02:11:49;;;;;;;83.20;42.92;;;6.80;99.90;;;6.46;100.00;98573.31;5037979;28;20038;-78
2023/10/19 02:14:18;;;;;;;87.88;43.90;;;6.80;99.90;;;6.37;100.00;98566.63;5049604;28;20033;-77
2023/10/19 02:16:47;;;;;;;90.72;45.42;;;6.80;99.90;;;6.47;100.00;98564.13;5039601;28;20113;-78
2023/10/19 02:19:14;;;;;;;92.68;45.10;;;6.80;99.90;;;6.39;100.00;98555.53;5033389;28;20132;-79
2023/10/19 02:21:40;;;;;;;87.53;45.10;;;6.80;99.90;;;6.40;100.00;98543.66;5049017;28;20037;-78
2023/10/19 02:24:14;;;;;;;94.40;46.72;;;6.80;99.90;;;6.40;100.00;98549.91;5035534;28;20076;-78
2023/10/19 02:26:42;;;;;;;98.30;45.53;;;6.70;99.90;;;6.42;100.00;98536.09;5034819;28;20029;-78
2023/10/19 02:29:15;;;;;;;95.85;47.08;;;6.70;99.90;;;6.39;100.00;98540.13;5054180;28;20493;-78
2023/10/19 02:31:41;;;;;;;95.70;46.47;;;6.80;99.90;;;6.42;100.00;98519.84;5038804;28;20631;-78
2023/10/19 02:34:11;;;;;;;104.55;46.25;;;6.70;99.90;;;6.50;100.00;98527.59;5035355;28;20033;-78
2023/10/19 02:36:41;;;;;;;109.80;47.10;;;6.80;99.90;;;6.46;100.00;98529.97;5038495;28;20389;-78
2023/10/19 02:39:11;;;;;;;103.78;48.92;;;6.80;99.90;;;6.50;100.00;98535.72;5017493;28;20042;-78
2023/10/19 02:41:48;;;;;;;101.57;49.42;;;6.80;99.90;;;6.44;100.00;98529.38;5040669;28;20025;-78
2023/10/19 02:44:25;;;;;;;103.03;46.33;;;6.80;99.90;;;6.48;100.00;98522.41;5035037;28;20026;-78
2023/10/19 02:46:58;;;;;;;102.07;48.80;;;6.80;99.90;;;6.51;100.00;98513.00;5033464;28;20148;-79
2023/10/19 02:49:29;;;;;;;101.25;49.15;;;6.80;99.90;;;6.48;100.00;98511.59;5035300;28;20523;-78
2023/10/19 02:51:58;;;;;;;103.25;49.00;;;6.80;99.90;;;6.46;100.00;98508.28;5049957;28;20124;-78
2023/10/19 02:54:24;;;;;;;107.55;50.55;;;6.80;99.90;;;6.47;100.00;98487.44;5034949;28;20033;-79
2023/10/19 02:56:58;;;;;;;109.18;50.53;;;6.80;99.90;;;6.44;100.00;98469.78;5053674;28;20029;-79
2023/10/19 02:59:31;;;;;;;111.97;50.08;;;6.80;99.90;;;6.44;100.00;98469.78;5034613;28;20034;-78
2023/10/19 03:04:40;;;;;;;112.50;49.72;;;6.80;99.90;;;6.43;100.00;98487.13;5034626;28;20044;-78
2023/10/19 03:07:07;;;;;;;115.13;51.58;;;6.80;99.90;;;6.50;100.00;98480.72;5034420;28;20507;-78
2023/10/19 03:09:36;;;;;;;110.68;50.90;;;6.80;99.90;;;6.44;100.00;98466.25;5034396;28;20048;-79
2023/10/19 03:12:04;;;;;;;111.07;50.25;;;6.80;99.90;;;6.51;100.00;98468.81;5032734;28;20122;-78
2023/10/19 03:14:32;;;;;;;109.25;50.95;;;6.80;99.90;;;6.43;100.00;98465.44;5047404;28;20074;-78
2023/10/19 03:16:59;;;;;;;121.72;51.47;;;6.80;99.90;;;6.53;100.00;98450.44;5048253;28;20139;-78
2023/10/19 03:19:26;;;;;;;109.13;50.33;;;6.80;99.90;;;6.47;100.00;98450.34;5033788;28;20069;-78
2023/10/19 03:21:55;;;;;;;115.43;53.72;;;6.80;99.90;;;6.44;100.00;98447.28;5033996;28;20619;-78
2023/10/19 03:24:38;;;;;;;117.40;52.38;;;6.80;99.90;;;6.51;100.00;98441.72;5032272;28;20040;-79
2023/10/19 03:27:21;;;;;;;112.60;52.55;;;6.80;99.90;;;6.53;100.00;98439.59;5033927;28;20485;-78
2023/10/19 03:29:48;;;;;;;118.65;53.65;;;6.80;99.90;;;6.44;100.00;98431.03;5033551;28;20079;-78
2023/10/19 03:32:15;;;;;;;122.95;54.38;;;6.80;99.90;;;6.43;100.00;98421.28;5031893;28;20033;-78
2023/10/19 03:34:47;;;;;;;124.20;53.73;;;6.80;99.90;;;6.48;100.00;98415.94;5034565;28;20025;-79
2023/10/19 03:37:14;;;;;;;126.03;53.13;;;6.80;99.90;;;6.52;100.00;98416.28;5032799;28;20041;-78
2023/10/19 03:39:41;;;;;;;124.57;54.92;;;6.80;99.90;;;6.51;100.00;98409.22;5043538;28;20389;-79
2023/10/19 03:42:13;;;;;;;125.10;55.80;;;6.80;99.90;;;6.52;100.00;98411.69;5048753;28;20029;-78
2023/10/19 03:45:02;;;;;;;124.80;53.72;;;6.80;99.90;;;6.44;100.00;98398.53;5033327;28;20037;-79
2023/10/19 03:47:31;;;;;;;121.35;52.15;;;6.80;99.90;;;6.51;100.00;98387.53;5031397;28;20144;-79
2023/10/19 03:49:59;;;;;;;119.75;54.33;;;6.80;99.90;;;6.47;100.00;98395.34;5039058;28;20033;-79
2023/10/19 03:52:30;;;;;;;134.93;56.97;;;6.80;99.90;;;6.48;100.00;98378.84;5046408;28;20497;-79
2023/10/19 03:54:57;;;;;;;129.80;56.10;;;6.80;99.90;;;6.44;100.00;98377.69;5030559;28;20057;-78
2023/10/19 03:57:24;;;;;;;136.63;57.22;;;6.80;99.90;;;6.52;100.00;98378.34;5048081;28;20041;-79
2023/10/19 03:59:50;;;;;;;132.57;56.40;;;6.80;99.90;;;6.53;100.00;98369.16;5032423;28;20132;-78
2023/10/19 04:02:23;;;;;;;142.35;58.75;;;6.80;99.90;;;6.38;100.00;98375.97;5032505;28;20457;-79
2023/10/19 04:04:49;;;;;;;122.45;55.00;;;6.80;99.90;;;6.44;100.00;98364.16;5040554;28;20120;-78
2023/10/19 04:07:21;;;;;;;130.20;56.75;;;6.80;99.90;;;6.47;100.00;98354.69;5040235;28;20654;-78
2023/10/19 04:12:42;;;;;;;133.50;55.85;;;6.80;99.90;;;6.44;100.00;98356.03;5039498;28;20056;-78
2023/10/19 04:15:21;;;;;;;133.93;57.38;;;6.80;99.90;;;6.34;100.00;98339.59;5037143;28;20163;-78
2023/10/19 04:17:52;;;;;;;129.50;54.78;;;6.80;99.90;;;6.40;100.00;98348.63;5051145;28;20037;-78
2023/10/19 04:22:50;;;;;;;120.55;53.75;;;6.80;99.90;;;6.39;100.00;98326.16;5037281;28;20034;-78
2023/10/19 04:25:25;;;;;;;129.63;55.08;;;6.80;99.90;;;6.39;100.00;98320.75;5041083;28;20052;-78
2023/10/19 04:27:50;;;;;;;136.90;56.00;;;6.80;99.90;;;6.39;100.00;98318.03;5037729;28;20029;-80
2023/10/19 04:30:23;;;;;;;129.77;55.40;;;6.80;99.90;;;6.40;100.00;98321.53;5036660;28;21160;-80
2023/10/19 04:32:50;;;;;;;127.13;53.78;;;6.80;99.90;;;6.37;100.00;98306.63;5041193;28;20029;-80
2023/10/19 04:35:22;;;;;;;122.15;52.60;;;6.80;99.90;;;6.36;100.00;98304.16;5041636;28;20381;-80
2023/10/19 04:37:53;;;;;;;120.15;53.22;;;6.80;99.90;;;6.49;100.00;98311.94;5035203;28;20053;-80
2023/10/19 04:40:21;;;;;;;126.53;52.63;;;6.80;99.90;;;6.44;100.00;98317.28;5043521;28;20033;-80
2023/10/19 04:42:49;;;;;;;;;;;6.80;99.90;;;6.42;100.00;98309.41;5046258;28;20033;-80
2023/10/19 04:45:15;;;;;;;124.00;51.35;;;6.80;99.90;;;6.37;100.00;98301.22;5045243;28;19923;-80
2023/10/19 04:47:40;;;;;;;130.02;53.47;;;6.80;99.90;;;6.44;100.00;98312.69;5046631;28;20037;-79
2023/10/19 04:50:08;;;;;;;127.47;53.28;;;6.80;99.90;;;6.39;100.00;98290.94;5042787;28;20053;-80
2023/10/19 04:52:34;;;;;;;127.13;53.25;;;6.80;99.90;;;6.37;100.00;98292.25;5032020;28;20033;-82
2023/10/19 04:55:01;;;;;;;127.03;52.95;;;6.80;99.90;;;6.32;100.00;98285.69;5029680;28;20057;-83
2023/10/19 04:57:27;;;;;;;126.10;51.63;;;6.80;99.90;;;6.35;100.00;98276.22;5047943;28;20041;-81
2023/10/19 04:59:53;;;;;;;132.00;51.67;;;6.80;99.90;;;6.39;100.00;98277.41;5032974;28;20294;-81
2023/10/19 05:02:19;;;;;;;122.85;49.92;;;6.80;99.90;;;6.37;100.00;98279.53;5032565;28;20117;-83
2023/10/19 05:04:49;;;;;;;123.78;51.67;;;6.80;99.90;;;6.32;100.00;98260.47;5032857;28;20532;-86
2023/10/19 05:07:18;;;;;;;121.50;49.75;;;6.80;99.90;;;6.37;100.00;98255.16;5047703;28;20148;-84
2023/10/19 05:09:45;;;;;;;119.53;48.40;;;6.80;99.90;;;6.37;100.00;98251.63;5033300;28;20033;-84
2023/10/19 05:12:14;;;;;;;113.07;47.20;;;6.80;99.90;;;6.44;100.00;98258.53;5053982;28;20401;-83
2023/10/19 05:14:43;;;;;;;107.07;45.25;;;6.80;99.90;;;6.51;100.00;98257.53;5034791;28;20149;-84
2023/10/19 05:17:10;;;;;;;107.10;44.47;;;6.80;99.90;;;6.45;100.00;98254.75;5034094;28;20060;-83
2023/10/19 05:19:37;;;;;;;108.13;43.72;;;6.80;99.90;;;6.50;100.00;98261.28;5040040;28;20144;-83
2023/10/19 05:22:09;;;;;;;106.72;44.83;;;6.80;99.90;;;6.50;100.00;98255.88;5032752;28;20419;-83
2023/10/19 05:24:35;;;;;;;104.97;45.50;;;6.80;99.90;;;6.43;100.00;98250.63;5048329;28;20125;-85
2023/10/19 05:27:02;;;;;;;106.60;44.63;;;6.80;99.90;;;6.45;100.00;98260.16;5027228;28;20048;-82
2023/10/19 05:29:32;;;;;;;99.10;43.88;;;6.80;99.90;;;6.40;100.00;98264.66;5063449;28;20196;-82
2023/10/19 05:31:58;;;;;;;95.75;42.40;;;6.80;99.90;;;6.37;100.00;98254.34;5043898;28;20037;-82
2023/10/19 05:34:26;;;;;;;98.28;44.20;;;6.80;99.90;;;6.44;100.00;98244.13;5052601;28;20037;-79
2023/10/19 05:36:53;;;;;;;;;;;6.80;99.90;;;6.43;100.00;98250.63;5033465;28;20033;-81
2023/10/19 05:39:20;;;;;;;93.40;41.95;;;6.70;99.90;;;6.49;100.00;98257.75;5048695;28;19917;-78
2023/10/19 05:41:46;;;;;;;90.97;41.45;;;6.80;99.90;;;6.52;100.00;98260.00;5037682;28;20037;-79
2023/10/19 05:44:12;;;;;;;93.30;42.28;;;6.80;99.90;;;6.43;100.00;98259.59;5036854;28;20037;-79
2023/10/19 05:46:40;;;;;;;91.32;42.08;;;6.80;99.90;;;6.50;100.00;98266.72;5035888;28;20033;-79
2023/10/19 05:49:06;;;;;;;89.60;41.63;;;6.80;99.90;;;6.47;100.00;98273.44;5042509;28;20028;-78
2023/10/19 05:51:32;;;;;;;84.50;41.13;;;6.80;99.90;;;6.44;100.00;98266.66;5035065;28;20091;-78
2023/10/19 05:54:01;;;;;;;87.20;40.65;;;6.80;99.90;;;6.42;100.00;98270.66;5035869;28;20029;-79
2023/10/19 05:56:31;;;;;;;88.47;41.00;;;6.80;99.90;;;6.47;100.00;98266.16;5036605;28;20037;-79
2023/10/19 05:58:57;;;;;;;81.68;38.75;;;6.80;99.90;;;6.43;100.00;98262.28;5043738;28;20042;-78
2023/10/19 06:01:24;;;;;;;89.57;40.78;;;6.80;99.90;;;6.43;100.00;98269.59;5035577;28;20045;-79
2023/10/19 06:03:53;;;;;;;84.97;39.20;;;6.80;99.90;;;6.49;100.00;98265.88;5052535;28;20116;-81
2023/10/19 06:06:22;;;;;;;78.72;38.63;;;6.80;99.90;;;6.49;100.00;98263.16;5036233;28;20041;-77
2023/10/19 06:08:49;;;;;;;79.55;38.42;;;6.80;99.90;;;6.50;100.00;98275.69;5036837;28;20035;-81
2023/10/19 06:11:15;;;;;;;83.40;37.03;;;6.80;99.90;;;6.44;100.00;98258.53;5037087;28;20052;-80
2023/10/19 06:13:41;;;;;;;83.10;37.58;;;6.80;99.90;;;6.33;100.00;98235.03;5037053;28;20033;-80
2023/10/19 06:16:06;;;;;;;79.10;35.92;;;6.80;99.90;;;6.47;100.00;98258.03;5035972;28;20045;-82
2023/10/19 06:18:32;;;;;;;78.88;36.63;;;6.80;99.90;;;6.55;100.00;98261.38;5059265;28;20037;-81
2023/10/19 06:20:58;;;;;;;82.60;35.80;;;6.80;99.90;;;6.52;100.00;98253.75;5035663;28;20478;-80
2023/10/19 06:23:24;;;;;;;74.72;35.28;;;6.80;99.90;;;6.56;100.00;98254.88;5038561;28;20033;-82
2023/10/19 06:25:51;;;;;;;77.90;35.45;;;6.80;99.90;;;6.56;100.00;98254.88;5033569;28;20044;-85
2023/10/19 06:28:17;;;;;;;77.25;35.63;;;6.80;99.90;;;6.58;100.00;98255.44;5038892;28;20033;-81
2023/10/19 06:30:43;;;;;;;76.00;34.53;;;6.80;99.90;;;6.57;100.00;98251.09;5035139;28;20115;-81
2023/10/19 06:33:09;;;;;;;69.00;33.15;;;6.90;99.90;;;6.56;100.00;98261.13;5041541;28;20464;-81
2023/10/19 06:35:37;;;;;;;74.63;34.90;;;6.80;99.90;;;6.54;100.00;98257.00;5038806;28;20033;-81
2023/10/19 06:38:03;;;;;;;72.57;34.10;;;6.80;99.90;;;6.50;100.00;98255.88;5037530;28;20179;-81
2023/10/19 06:40:30;;;;;;;80.18;34.95;;;6.90;99.90;;;6.53;100.00;98250.78;5048825;28;20040;-79
2023/10/19 06:42:58;;;;;;;73.22;34.45;;;6.80;99.90;;;6.53;100.00;98260.78;5033499;28;20057;-80
2023/10/19 06:45:25;;;;;;;76.50;34.47;;;6.90;99.90;;;6.59;100.00;98255.22;5033268;28;20060;-78
2023/10/19 06:47:52;;;;;;;72.30;34.83;;;6.90;99.90;;;6.55;100.00;98247.81;5033063;28;20029;-79
2023/10/19 06:50:21;;;;;;;70.43;32.90;;;6.90;99.90;;;6.53;100.00;98244.53;5033953;28;20037;-79
2023/10/19 06:52:48;;;;;;;76.50;33.63;;;6.90;99.90;;;6.52;100.00;98243.75;5041645;28;20029;-79
2023/10/19 06:55:22;;;;;;;73.75;32.42;;;6.90;99.90;;;6.57;100.00;98246.50;5035020;28;20033;-79
2023/10/19 06:57:53;;;;;;;70.68;31.88;;;6.90;99.90;;;6.71;100.00;98243.44;5035393;28;20037;-79
2023/10/19 07:00:23;;;;;;;64.53;30.52;;;6.90;99.90;;;6.64;100.00;98240.09;5050338;28;20135;-78
2023/10/19 07:02:52;;;;;;;65.22;30.25;;;6.90;99.90;;;6.67;100.00;98243.13;5050255;28;20026;-79
2023/10/19 07:05:29;;;;;;;60.72;29.08;;;6.90;99.90;;;6.68;100.00;98244.75;5049921;28;20040;-79
2023/10/19 07:07:56;;;;;;;66.45;31.13;;;6.90;99.90;;;6.69;100.00;98249.13;5033488;28;20485;-79
2023/10/19 07:10:23;;;;;;;60.25;30.38;;;6.90;99.90;;;6.73;100.00;98244.84;5054626;28;20078;-79
2023/10/19 07:12:53;;;;;;;60.83;29.63;;;6.90;99.90;;;6.74;100.00;98238.34;5035359;28;20029;-79
2023/10/19 07:15:19;;;;;;;54.25;28.27;;;6.90;99.90;;;6.71;100.00;98256.97;5035459;28;20036;-79
2023/10/19 07:17:54;;;;;;;57.10;28.58;;;7.00;99.90;;;6.71;100.00;98256.97;5044738;28;20076;-79
2023/10/19 07:20:32;;;;;;;58.40;28.02;;;6.90;99.90;;;6.78;100.00;98264.94;5034806;28;20041;-79
2023/10/19 07:23:09;;;;;;;57.80;28.33;;;6.90;99.90;;;6.74;100.00;98256.47;5040869;28;20038;-78
2023/10/19 07:25:47;;;;;;;62.35;27.92;;;6.90;99.90;;;6.76;100.00;98260.59;5049483;28;20509;-79
2023/10/19 07:28:14;;;;;;;59.20;27.35;;;6.90;99.90;;;6.87;100.00;98269.69;5035207;28;20037;-78
2023/10/19 07:30:42;;;;;;;54.60;26.75;;;7.00;99.90;;;6.86;100.00;98284.31;5034582;28;20539;-79
2023/10/19 07:33:09;;;;;;;54.17;27.08;;;7.00;99.90;;;6.83;100.00;98286.69;5033501;28;20114;-79
2023/10/19 07:35:39;;;;;;;50.97;27.02;;;7.00;99.90;;;6.80;100.00;98298.03;5034795;28;20497;-79
2023/10/19 07:38:07;;;;;;;56.25;27.05;;;6.90;99.90;;;6.79;100.00;98301.81;5035623;28;20401;-79
2023/10/19 07:40:34;;;;;;;53.65;26.48;;;6.90;99.90;;;6.80;100.00;98308.88;5034396;28;20389;-79
2023/10/19 07:43:00;;;;;;;52.63;26.20;;;6.90;99.90;;;6.79;100.00;98302.63;5049758;28;20095;-80
2023/10/19 07:45:25;;;;;;;50.42;25.92;;;6.90;99.90;;;6.84;100.00;98305.41;5033061;28;20044;-79
2023/10/19 07:47:51;;;;;;;50.72;25.40;;;7.00;99.90;;;6.94;100.00;98309.31;5033379;28;20055;-78
2023/10/19 07:50:17;;;;;;;49.28;24.98;;;7.00;99.90;;;6.90;100.00;98314.44;5034884;28;20433;-79
2023/10/19 07:52:48;;;;;;;50.67;26.60;;;7.00;99.90;;;6.84;100.00;98308.13;5033918;28;20042;-79
2023/10/19 07:55:16;;;;;;;51.08;25.60;;;7.10;99.90;;;6.94;100.00;98293.06;5032960;28;20038;-78
2023/10/19 07:57:44;;;;;;;50.25;25.23;;;7.10;99.90;;;6.89;100.00;98285.66;5048585;28;20087;-79
2023/10/19 08:00:15;;;;;;;53.47;25.42;;;7.10;99.90;;;6.94;100.00;98266.78;5034263;28;20128;-79
2023/10/19 08:02:47;;;;;;;46.78;25.70;;;7.20;99.90;;;6.88;100.00;98259.63;5053821;28;20041;-79
2023/10/19 08:05:19;;;;;;;46.13;24.70;;;7.20;99.90;;;6.99;100.00;98280.41;5054633;28;20092;-79
2023/10/19 08:07:49;;;;;;;45.30;25.58;;;7.20;99.90;;;7.04;100.00;98279.66;5040280;28;20053;-79
2023/10/19 08:10:20;;;;;;;52.13;25.88;;;7.30;99.90;;;7.04;100.00;98283.19;5037579;28;20052;-79
2023/10/19 08:12:48;;;;;;;49.72;26.13;;;7.20;99.90;;;7.01;100.00;98274.72;5033524;28;20518;-79
2023/10/19 08:15:16;;;;;;;50.85;25.92;;;7.20;99.90;;;7.09;100.00;98273.47;5051233;28;20208;-78
2023/10/19 08:17:48;;;;;;;50.97;26.77;;;7.30;99.90;;;7.11;100.00;98265.88;5035390;28;20048;-79
2023/10/19 08:20:24;;;;;;;52.75;27.38;;;7.30;99.90;;;7.19;100.00;98268.19;5033707;28;20039;-78
2023/10/19 08:22:56;;;;;;;48.60;26.38;;;7.40;99.90;;;7.31;100.00;98263.44;5034078;28;20033;-78
2023/10/19 08:25:23;;;;;;;50.67;26.88;;;7.50;99.90;;;7.38;100.00;98265.94;5034043;28;20034;-79
2023/10/19 08:27:50;;;;;;;52.58;26.08;;;7.50;99.90;;;7.31;100.00;98265.34;5033250;28;20037;-78
2023/10/19 08:30:18;;;;;;;52.28;27.10;;;7.50;99.90;;;7.30;100.00;98279.97;5039935;28;20120;-79
2023/10/19 08:32:48;;;;;;;48.30;25.95;;;7.50;99.90;;;7.37;100.00;98279.75;5033671;28;20080;-78
2023/10/19 08:35:20;;;;;;;52.50;26.88;;;7.50;99.90;;;7.41;100.00;98284.44;5033508;28;20452;-79
2023/10/19 08:37:47;;;;;;;46.60;25.08;;;7.60;99.90;;;7.36;100.00;98300.66;5031511;28;20049;-79
2023/10/19 08:40:17;;;;;;;52.03;26.45;;;7.50;99.90;;;7.34;100.00;98309.03;5032075;28;20034;-79
2023/10/19 08:42:45;;;;;;;48.20;25.80;;;7.50;99.90;;;7.29;100.00;98302.72;5032477;28;20234;-80
2023/10/19 08:45:13;;;;;;;48.85;26.20;;;7.50;99.90;;;7.43;100.00;98306.69;5034133;28;20037;-79
2023/10/19 08:47:57;;;;;;;51.35;26.83;;;7.50;99.90;;;7.43;100.00;98305.91;5035978;28;20042;-80
2023/10/19 08:50:28;;;;;;;46.28;26.70;;;7.60;99.90;;;7.50;100.00;98314.66;5033362;28;20370;-79
2023/10/19 08:52:57;;;;;;;55.08;27.35;;;7.60;99.90;;;7.42;100.00;98318.63;5048519;28;20037;-80
2023/10/19 08:55:24;;;;;;;50.03;27.00;;;7.60;99.90;;;7.40;100.00;98334.34;5053001;28;20092;-80
2023/10/19 08:57:52;;;;;;;50.60;27.37;;;7.60;99.90;;;7.34;100.00;98344.28;5034918;28;20025;-80
2023/10/19 09:00:19;;;;;;;48.97;26.40;;;7.50;99.90;;;7.30;100.00;98336.94;5033999;28;20037;-81
2023/10/19 09:02:48;;;;;;;46.63;26.90;;;7.50;99.90;;;7.36;100.00;98327.78;5030961;28;20064;-81
2023/10/19 09:05:25;;;;;;;52.00;27.58;;;7.50;99.90;;;7.41;100.00;98324.28;5033405;28;20076;-81
2023/10/19 09:07:55;;;;;;;46.95;27.25;;;7.60;99.90;;;7.32;100.00;98322.03;5047763;28;20029;-82
2023/10/19 09:10:25;;;;;;;51.80;27.90;;;7.60;99.90;;;7.33;100.00;98320.97;5050099;28;20047;-82
2023/10/19 09:13:09;;;;;;;53.53;29.15;;;7.60;99.90;;;7.45;100.00;98325.44;5039116;28;20037;-82
2023/10/19 09:15:36;;;;;;;49.38;29.08;;;7.60;99.90;;;7.55;100.00;98313.88;5033645;28;20107;-83
2023/10/19 09:18:17;;;;;;;50.10;28.83;;;7.70;99.90;;;7.63;100.00;98292.53;5037113;28;20481;-81
2023/10/19 09:21:07;;;;;;;49.35;28.42;;;7.80;99.90;;;7.82;100.00;98286.75;5044729;28;20655;-82
2023/10/19 09:23:34;;;;;;;54.88;30.83;;;7.90;99.90;;;7.82;100.00;98281.31;5037385;28;20033;-84
2023/10/19 09:26:07;;;;;;;54.00;29.83;;;8.00;99.90;;;8.03;100.00;98289.66;5065195;28;20468;-85
2023/10/19 09:28:37;;;;;;;52.90;31.35;;;8.20;99.90;;;8.08;100.00;98287.00;5042660;28;20042;-86
2023/10/19 09:31:04;;;;;;;59.03;31.98;;;8.20;99.90;;;8.12;100.00;98296.25;5048193;28;20090;-85
2023/10/19 09:33:34;;;;;;;59.00;32.85;;;8.30;99.90;;;8.17;100.00;98301.72;5035585;28;20034;-83
2023/10/19 09:36:04;;;;;;;56.03;33.35;;;8.40;99.90;;;8.49;100.00;98295.50;5043065;28;20033;-81
2023/10/19 09:38:31;;;;;;;53.67;31.40;;;8.60;99.90;;;8.77;100.00;98290.81;5036468;28;20530;-79
2023/10/19 09:40:59;;;;;;;51.22;31.00;;;8.90;99.90;;;8.97;100.00;98321.09;5036681;28;20087;-83
2023/10/19 09:43:44;;;;;;;42.25;27.02;;;9.10;99.90;;;8.85;100.00;98384.63;5040181;28;20037;-82
2023/10/19 09:46:12;;;;;;;41.95;26.23;;;9.10;99.90;;;8.67;100.00;98413.03;5044307;28;20033;-83
2023/10/19 09:48:45;;;;;;;38.55;25.23;;;8.90;99.90;;;8.58;100.00;98430.91;5023105;28;20040;-82
2023/10/19 09:51:12;;;;;;;38.63;23.75;;;8.80;99.90;;;8.38;100.00;98445.09;5043317;28;20029;-82
2023/10/19 09:53:40;;;;;;;37.72;24.17;;;8.60;99.90;;;8.50;100.00;98445.78;5038726;28;20101;-84
2023/10/19 09:56:19;;;;;;;36.53;25.45;;;8.60;99.90;;;8.48;100.00;98445.19;5037729;28;20033;-83
2023/10/19 09:58:51;;;;;;;35.72;23.75;;;8.70;99.90;;;8.70;100.00;98439.72;5036623;28;20025;-82
2023/10/19 10:01:19;;;;;;;37.08;24.70;;;8.80;99.90;;;8.90;100.00;98435.53;5036911;28;20099;-82
2023/10/19 10:03:51;;;;;;;;;;;8.90;99.90;;;9.03;100.00;98434.25;5047994;28;20033;-82
2023/10/19 10:06:59;;;;;;;36.17;23.42;;;9.10;99.90;;;9.08;100.00;98466.94;5036607;28;20031;-82
2023/10/19 10:09:26;;;;;;;34.88;22.42;;;9.20;99.90;;;9.18;100.00;98487.97;5036228;28;20037;-83
2023/10/19 10:11:53;;;;;;;31.52;21.60;;;9.20;99.90;;;9.06;100.00;98499.00;5035943;28;20033;-81
2023/10/19 10:14:28;;;;;;;29.23;20.25;;;9.20;99.90;;;9.21;100.00;98517.34;5045011;28;20128;-81
2023/10/19 10:17:09;;;;;;;28.33;19.23;;;9.30;99.90;;;9.37;100.00;98517.50;5035636;28;20025;-83
2023/10/19 10:19:35;;;;;;;26.02;18.70;;;9.40;99.90;;;9.06;100.00;98540.66;5036367;28;20393;-81
2023/10/19 10:22:21;;;;;;;26.35;18.77;;;9.30;99.90;;;9.14;100.00;98552.94;5035266;28;20087;-81
2023/10/19 10:24:54;;;;;;;24.45;17.88;;;9.30;99.90;;;9.26;100.00;98531.00;5035994;28;20049;-81
2023/10/19 10:27:20;;;;;;;26.98;18.52;;;9.30;99.90;;;9.45;100.00;98526.00;5036971;28;20037;-84
2023/10/19 10:30:05;;;;;;;24.88;18.15;;;9.40;99.90;;;9.45;100.00;98520.56;5048676;28;20404;-81
2023/10/19 10:32:56;;;;;;;28.75;19.40;;;9.60;99.90;;;9.82;100.00;98515.31;5047374;28;20049;-82
2023/10/19 10:35:36;;;;;;;22.55;16.70;;;9.80;99.90;;;9.90;100.00;98523.81;5049099;28;20048;-82
2023/10/19 10:38:08;;;;;;;23.95;16.45;;;10.00;99.90;;;9.70;100.00;98550.91;5044838;28;20444;-81
2023/10/19 10:40:45;;;;;;;20.58;15.35;;;9.90;99.90;;;9.57;100.00;98563.09;5036966;28;20033;-81
2023/10/19 10:43:12;;;;;;;19.90;15.25;;;9.80;99.90;;;9.66;100.00;98555.25;5041872;28;20095;-81
2023/10/19 10:45:38;;;;;;;20.08;15.13;;;9.80;99.90;;;9.64;100.00;98561.78;5037338;28;20029;-81
2023/10/19 10:48:04;;;;;;;19.27;14.55;;;9.80;99.90;;;9.43;100.00;98549.09;5035876;28;20385;-82
2023/10/19 10:50:30;;;;;;;19.30;14.32;;;9.70;99.90;;;9.15;100.00;98549.16;5043231;28;20029;-81